createdAt,value
2023-12-09T00:03:35.445Z,-1.15
2023-12-09T00:08:39.090Z,-1.14
2023-12-09T00:13:42.312Z,-1.20
2023-12-09T00:18:46.515Z,-1.23
2023-12-09T00:23:50.160Z,-1.29
2023-12-09T00:28:53.971Z,-1.17
2023-12-09T00:33:57.232Z,-0.93
2023-12-09T00:39:00.501Z,-0.95
2023-12-09T00:44:03.798Z,-0.98
2023-12-09T00:49:07.384Z,-0.68
2023-12-09T00:54:10.745Z,-0.61
2023-12-09T00:59:13.877Z,-0.84
2023-12-09T01:04:17.638Z,-1.11
2023-12-09T01:09:21.211Z,-1.23
2023-12-09T01:14:24.686Z,-1.24
2023-12-09T01:19:28.619Z,-1.26
2023-12-09T01:24:32.371Z,-1.15
2023-12-09T01:29:37.885Z,-1.08
2023-12-09T01:34:42.229Z,-1.08
2023-12-09T01:39:45.529Z,-1.05
2023-12-09T01:44:48.532Z,-1.08
2023-12-09T01:49:52.168Z,-1.16
2023-12-09T01:54:55.566Z,-1.23
2023-12-09T01:59:58.800Z,-1.20
2023-12-09T02:05:03.649Z,-1.18
2023-12-09T02:10:07.797Z,-1.26
2023-12-09T02:15:25.943Z,-1.32
2023-12-09T02:20:31.138Z,-1.36
2023-12-09T02:25:35.667Z,-1.36
2023-12-09T02:30:51.609Z,-1.40
2023-12-09T02:35:56.619Z,-1.43
2023-12-09T02:41:00.068Z,-1.45
2023-12-09T02:46:04.010Z,-1.41
2023-12-09T02:51:08.274Z,-1.42
2023-12-09T02:56:11.950Z,-1.38
2023-12-09T03:01:15.430Z,-1.38
2023-12-09T03:06:18.960Z,-1.43
2023-12-09T03:11:22.493Z,-1.43
2023-12-09T03:16:25.857Z,-1.43
2023-12-09T03:21:29.243Z,-1.48
2023-12-09T03:26:33.257Z,-1.56
2023-12-09T03:31:42.452Z,-1.53
2023-12-09T03:36:45.665Z,-1.47
2023-12-09T03:41:48.915Z,-1.46
2023-12-09T03:46:52.438Z,-1.45
2023-12-09T03:51:55.725Z,-1.47
2023-12-09T03:56:58.977Z,-1.47
2023-12-09T04:02:02.257Z,-1.36
2023-12-09T04:07:05.470Z,-1.37
2023-12-09T04:12:08.912Z,-1.40
2023-12-09T04:17:12.283Z,-1.35
2023-12-09T04:22:15.491Z,-1.44
2023-12-09T04:27:18.859Z,-1.48
2023-12-09T04:32:22.234Z,-1.52
2023-12-09T04:37:26.138Z,-1.49
2023-12-09T04:42:32.630Z,-1.47
2023-12-09T04:47:36.363Z,-1.46
2023-12-09T04:52:39.725Z,-1.50
2023-12-09T04:57:43.068Z,-1.50
2023-12-09T05:02:46.384Z,-1.53
2023-12-09T05:07:49.686Z,-1.54
2023-12-09T05:12:52.996Z,-1.44
2023-12-09T05:17:56.291Z,-1.48
2023-12-09T05:22:59.630Z,-1.53
2023-12-09T05:28:02.933Z,-1.40
2023-12-09T05:33:06.347Z,-1.42
2023-12-09T05:38:09.884Z,-1.39
2023-12-09T05:43:13.179Z,-1.39
2023-12-09T05:48:17.037Z,-1.37
2023-12-09T06:00:04.928Z,-1.32
2023-12-09T06:05:10.291Z,-1.27
2023-12-09T06:10:14.660Z,-1.19
2023-12-09T06:15:19.509Z,-1.14
2023-12-09T06:20:23.142Z,-1.14
2023-12-09T06:25:26.318Z,-1.14
2023-12-09T06:30:30.142Z,-0.94
2023-12-09T06:35:33.695Z,-0.85
2023-12-09T06:40:36.998Z,-0.96
2023-12-09T06:45:40.229Z,-0.91
2023-12-09T06:50:44.712Z,-0.89
2023-12-09T06:55:47.947Z,-1.09
2023-12-09T07:00:51.751Z,-1.07
2023-12-09T07:05:55.131Z,-1.14
2023-12-09T07:11:00.958Z,-1.24
2023-12-09T07:16:05.356Z,-1.18
2023-12-09T07:21:08.737Z,-1.13
2023-12-09T07:26:13.660Z,-1.19
2023-12-09T07:31:17.465Z,-1.15
2023-12-09T07:36:21.501Z,-1.09
2023-12-09T07:41:24.920Z,-1.03
2023-12-09T07:46:28.737Z,-1.07
2023-12-09T07:51:32.964Z,-1.09
2023-12-09T07:56:36.398Z,-1.10
2023-12-09T08:01:43.102Z,-1.09
2023-12-09T08:06:47.164Z,-1.00
2023-12-09T08:11:53.621Z,-1.00
2023-12-09T08:16:57.822Z,-1.03
2023-12-09T08:22:01.632Z,-1.00
2023-12-09T08:27:05.444Z,-0.91
2023-12-09T08:32:10.719Z,-0.78
2023-12-09T08:37:13.921Z,-0.72
2023-12-09T08:42:17.125Z,-0.68
2023-12-09T08:47:20.744Z,-0.70
2023-12-09T08:52:24.059Z,-0.78
2023-12-09T08:57:28.631Z,-0.78
2023-12-09T09:02:33.862Z,-0.77
2023-12-09T09:07:41.721Z,-0.74
2023-12-09T09:12:45.559Z,-0.68
2023-12-09T09:17:49.293Z,-0.63
2023-12-09T09:22:52.557Z,-0.60
2023-12-09T09:27:56.201Z,-0.58
2023-12-09T09:33:00.432Z,-0.47
2023-12-09T09:38:03.783Z,-0.35
2023-12-09T09:43:13.763Z,-0.30
2023-12-09T09:48:25.681Z,-0.31
2023-12-09T09:53:38.974Z,-0.26
2023-12-09T09:58:43.726Z,-0.30
2023-12-09T10:03:47.953Z,-0.26
2023-12-09T10:08:52.524Z,-0.18
2023-12-09T10:13:55.932Z,-0.28
2023-12-09T10:18:59.254Z,-0.28
2023-12-09T10:24:05.502Z,-0.33
2023-12-09T10:29:08.831Z,-0.28
2023-12-09T10:34:14.240Z,-0.31
2023-12-09T10:39:21.018Z,-0.31
2023-12-09T10:44:24.328Z,-0.38
2023-12-09T10:49:27.799Z,-0.40
2023-12-09T10:54:31.594Z,-0.45
2023-12-09T10:59:36.281Z,-0.49
2023-12-09T11:04:40.291Z,-0.48
2023-12-09T11:09:44.683Z,-0.46
2023-12-09T11:14:48.052Z,-0.54
2023-12-09T11:19:51.561Z,-0.57
2023-12-09T11:24:55.493Z,-0.53
2023-12-09T11:30:00.784Z,-0.44
2023-12-09T11:35:06.312Z,-0.38
2023-12-09T11:40:11.394Z,-0.30
2023-12-09T11:45:16.237Z,-0.36
2023-12-09T11:50:20.474Z,-0.39
2023-12-09T11:55:24.663Z,-0.35
2023-12-09T12:00:28.167Z,-0.36
2023-12-09T12:05:33.149Z,-0.31
2023-12-09T12:10:39.033Z,-0.27
2023-12-09T12:15:43.972Z,-0.26
2023-12-09T12:20:50.070Z,-0.28
2023-12-09T12:25:55.455Z,-0.29
2023-12-09T12:31:03.410Z,-0.33
2023-12-09T12:36:07.507Z,-0.37
2023-12-09T12:41:11.155Z,-0.41
2023-12-09T12:46:14.403Z,-0.40
2023-12-09T12:51:18.595Z,-0.38
2023-12-09T12:56:22.104Z,-0.39
2023-12-09T13:01:25.467Z,-0.33
2023-12-09T13:06:29.805Z,-0.21
2023-12-09T13:11:33.543Z,-0.21
2023-12-09T13:16:38.682Z,-0.18
2023-12-09T13:21:44.451Z,-0.18
2023-12-09T13:26:48.737Z,-0.21
2023-12-09T13:31:52.304Z,-0.21
2023-12-09T13:36:56.483Z,-0.19
2023-12-09T13:41:59.970Z,-0.22
2023-12-09T13:47:03.509Z,-0.24
2023-12-09T13:52:07.230Z,-0.19
2023-12-09T13:57:11.321Z,-0.22
2023-12-09T14:02:15.086Z,-0.23
2023-12-09T14:07:19.217Z,-0.24
2023-12-09T14:12:22.548Z,-0.25
2023-12-09T14:17:26.447Z,-0.26
2023-12-09T14:22:32.546Z,-0.23
2023-12-09T14:27:37.018Z,-0.28
2023-12-09T14:32:45.812Z,-0.31
2023-12-09T14:37:52.075Z,-0.34
2023-12-09T14:42:55.771Z,-0.35
2023-12-09T14:48:04.961Z,-0.33
2023-12-09T14:53:15.625Z,-0.36
2023-12-09T14:58:19.640Z,-0.37
2023-12-09T15:03:23.118Z,-0.38
2023-12-09T15:08:27.019Z,-0.39
2023-12-09T15:13:31.917Z,-0.35
2023-12-09T15:18:35.662Z,-0.26
2023-12-09T15:23:39.249Z,-0.19
2023-12-09T15:28:42.789Z,-0.20
2023-12-09T15:33:46.489Z,-0.21
2023-12-09T15:38:50.205Z,-0.16
2023-12-09T15:43:53.440Z,-0.13
2023-12-09T15:48:57.127Z,-0.12
2023-12-09T15:54:01.024Z,-0.08
2023-12-09T15:59:04.609Z,-0.07
2023-12-09T16:04:08.553Z,-0.06
2023-12-09T16:09:14.068Z,-0.06
2023-12-09T16:14:17.497Z,-0.03
2023-12-09T16:19:20.890Z,0.02
2023-12-09T16:24:28.952Z,0.05
2023-12-09T16:29:32.785Z,0.09
2023-12-09T16:34:36.306Z,0.21
2023-12-09T16:39:40.125Z,0.32
2023-12-09T16:44:43.722Z,0.36
2023-12-09T16:49:47.259Z,0.50
2023-12-09T16:54:50.775Z,0.56
2023-12-09T16:59:54.622Z,0.60
2023-12-09T17:04:58.949Z,0.67
2023-12-09T17:10:02.220Z,0.59
2023-12-09T17:15:06.770Z,0.61
2023-12-09T17:20:10.888Z,0.65
2023-12-09T17:25:15.019Z,0.66
2023-12-09T17:30:19.131Z,0.69
2023-12-09T17:35:24.220Z,0.71
2023-12-09T17:40:27.851Z,0.75
2023-12-09T17:45:31.268Z,0.72
2023-12-09T17:50:34.962Z,0.75
2023-12-09T17:55:38.559Z,0.76
2023-12-09T18:00:42.845Z,0.73
2023-12-09T18:05:46.408Z,0.71
2023-12-09T18:10:49.639Z,0.71
2023-12-09T18:15:52.883Z,0.71
2023-12-09T18:20:56.247Z,0.72
2023-12-09T18:26:00.282Z,0.68
2023-12-09T18:31:04.840Z,0.69
2023-12-09T18:36:09.701Z,0.77
2023-12-09T18:41:13.439Z,0.83
2023-12-09T18:46:18.002Z,0.86
2023-12-09T18:51:21.191Z,0.87
2023-12-09T18:56:25.964Z,0.91
2023-12-09T19:01:30.066Z,0.93
2023-12-09T19:06:42.205Z,0.93
2023-12-09T19:11:53.316Z,0.95
2023-12-09T19:16:58.224Z,0.90
2023-12-09T19:22:02.613Z,0.89
2023-12-09T19:27:06.870Z,0.89
2023-12-09T19:32:10.654Z,0.89
2023-12-09T19:37:14.110Z,0.89
2023-12-09T19:42:19.772Z,0.87
2023-12-09T19:47:23.358Z,0.91
2023-12-09T19:52:26.858Z,0.98
2023-12-09T19:57:31.242Z,0.96
2023-12-09T20:02:36.261Z,0.95
2023-12-09T20:07:41.311Z,0.92
2023-12-09T20:12:44.816Z,0.91
2023-12-09T20:17:48.368Z,0.97
2023-12-09T20:22:51.949Z,0.98
2023-12-09T20:27:58.276Z,1.03
2023-12-09T20:33:02.734Z,1.14
2023-12-09T20:38:06.682Z,1.20
2023-12-09T20:43:12.068Z,1.28
2023-12-09T20:48:17.670Z,1.44
2023-12-09T20:53:21.543Z,1.41
2023-12-09T20:58:25.425Z,1.38
2023-12-09T21:03:29.177Z,1.36
2023-12-09T21:08:33.014Z,1.43
2023-12-09T21:13:36.526Z,1.48
2023-12-09T21:18:40.055Z,1.52
2023-12-09T21:23:44.048Z,1.55
2023-12-09T21:28:47.415Z,1.57
2023-12-09T21:33:50.633Z,1.55
2023-12-09T21:38:55.949Z,1.50
2023-12-09T21:43:59.518Z,1.59
2023-12-09T21:49:04.422Z,1.59
2023-12-09T21:54:08.788Z,1.64
2023-12-09T21:59:12.163Z,1.66
2023-12-09T22:04:15.970Z,1.65
2023-12-09T22:09:20.322Z,1.68
2023-12-09T22:14:24.356Z,1.66
2023-12-09T22:19:27.811Z,1.72
2023-12-09T22:24:31.232Z,1.74
2023-12-09T22:29:36.480Z,1.75
2023-12-09T22:34:39.894Z,1.82
2023-12-09T22:39:43.459Z,1.83
2023-12-09T22:44:46.766Z,1.91
2023-12-09T22:49:50.457Z,1.92
2023-12-09T22:54:54.153Z,1.98
2023-12-09T22:59:58.346Z,2.01
2023-12-09T23:05:01.794Z,2.03
2023-12-09T23:10:06.532Z,2.06
2023-12-09T23:15:10.812Z,2.07
2023-12-09T23:20:14.492Z,2.09
2023-12-09T23:25:18.310Z,2.08
2023-12-09T23:30:21.730Z,2.06
2023-12-09T23:35:25.136Z,2.13
2023-12-09T23:40:29.074Z,2.14
2023-12-09T23:45:33.021Z,2.11
2023-12-09T23:50:36.512Z,2.20
2023-12-09T23:55:39.711Z,2.31
